createdAt,value
2022-10-11T00:02:17.487Z,6.75
2022-10-11T00:04:45.532Z,6.92
2022-10-11T00:07:15.051Z,6.81
2022-10-11T00:09:42.604Z,6.75
2022-10-11T00:12:10.277Z,6.76
2022-10-11T00:14:38.286Z,7.04
2022-10-11T00:17:08.758Z,6.96
2022-10-11T00:19:36.637Z,6.97
2022-10-11T00:22:04.685Z,7.26
2022-10-11T00:24:32.437Z,7.09
2022-10-11T00:27:00.189Z,7.06
2022-10-11T00:29:27.996Z,6.99
2022-10-11T00:31:55.702Z,7.25
2022-10-11T00:34:24.823Z,7.06
2022-10-11T00:36:52.819Z,7.27
2022-10-11T00:39:20.556Z,7.18
2022-10-11T00:41:49.189Z,7.13
2022-10-11T00:44:19.049Z,7.28
2022-10-11T00:46:55.609Z,7.02
2022-10-11T00:49:30.530Z,7.29
2022-10-11T00:52:00.367Z,7.02
2022-10-11T00:54:30.812Z,7.07
2022-10-11T00:57:01.938Z,7.14
2022-10-11T00:59:32.157Z,7.09
2022-10-11T01:01:59.777Z,7.13
2022-10-11T01:04:28.737Z,7.00
2022-10-11T01:06:56.724Z,6.93
2022-10-11T01:09:24.863Z,6.96
2022-10-11T01:11:54.207Z,6.94
2022-10-11T01:15:06.458Z,6.95
2022-10-11T01:17:41.814Z,7.06
2022-10-11T01:20:25.161Z,7.10
2022-10-11T01:23:20.462Z,7.17
2022-10-11T01:26:00.846Z,6.99
2022-10-11T01:28:40.833Z,6.85
2022-10-11T01:31:15.637Z,6.79
2022-10-11T01:33:47.209Z,6.74
2022-10-11T01:36:19.686Z,6.66
2022-10-11T01:38:50.671Z,6.63
2022-10-11T01:41:22.303Z,6.53
2022-10-11T01:43:50.812Z,6.47
2022-10-11T01:46:20.927Z,6.40
2022-10-11T01:48:50.877Z,6.41
2022-10-11T01:51:21.116Z,6.45
2022-10-11T01:54:16.407Z,6.52
2022-10-11T01:56:57.382Z,6.54
2022-10-11T01:59:40.286Z,6.40
2022-10-11T02:02:14.946Z,6.48
2022-10-11T02:04:45.704Z,6.55
2022-10-11T02:07:19.445Z,6.52
2022-10-11T02:09:49.548Z,6.47
2022-10-11T02:12:23.283Z,6.48
2022-10-11T02:14:52.297Z,6.23
2022-10-11T02:17:23.805Z,6.25
2022-10-11T02:19:54.424Z,6.10
2022-10-11T02:22:25.375Z,6.08
2022-10-11T02:24:57.305Z,6.02
2022-10-11T02:27:29.392Z,5.96
2022-10-11T02:29:58.632Z,5.87
2022-10-11T02:32:28.278Z,5.81
2022-10-11T02:34:59.840Z,5.67
2022-10-11T02:37:32.638Z,5.68
2022-10-11T02:40:04.217Z,5.69
2022-10-11T02:42:38.215Z,5.67
2022-10-11T02:45:09.174Z,5.84
2022-10-11T02:47:38.141Z,5.88
2022-10-11T02:50:11.238Z,5.81
2022-10-11T02:52:39.192Z,5.81
2022-10-11T02:55:09.569Z,5.89
2022-10-11T02:57:37.392Z,5.93
2022-10-11T03:00:06.133Z,5.92
2022-10-11T03:02:33.968Z,5.91
2022-10-11T03:05:03.104Z,6.08
2022-10-11T03:07:30.711Z,6.06
2022-10-11T03:09:58.671Z,6.13
2022-10-11T03:12:26.581Z,6.04
2022-10-11T03:14:54.580Z,6.00
2022-10-11T03:17:36.262Z,6.17
2022-10-11T03:20:07.358Z,6.22
2022-10-11T03:22:35.158Z,6.27
2022-10-11T03:25:04.317Z,6.27
2022-10-11T03:27:34.311Z,6.40
2022-10-11T03:30:02.068Z,6.46
2022-10-11T03:32:30.551Z,6.51
2022-10-11T03:34:58.931Z,6.58
2022-10-11T03:37:28.105Z,6.52
2022-10-11T03:39:55.826Z,6.54
2022-10-11T03:42:23.615Z,6.42
2022-10-11T03:44:52.251Z,6.38
2022-10-11T03:47:19.976Z,6.29
2022-10-11T03:49:47.540Z,6.18
2022-10-11T03:52:15.294Z,6.21
2022-10-11T03:54:45.328Z,6.26
2022-10-11T03:57:12.890Z,6.29
2022-10-11T03:59:40.566Z,6.30
2022-10-11T04:02:08.194Z,6.47
2022-10-11T04:04:36.315Z,6.42
2022-10-11T04:07:03.932Z,6.53
2022-10-11T04:09:31.918Z,6.37
2022-10-11T04:12:00.847Z,6.22
2022-10-11T04:14:28.571Z,6.45
2022-10-11T04:17:00.230Z,6.37
2022-10-11T04:19:28.714Z,6.28
2022-10-11T04:21:56.503Z,6.33
2022-10-11T04:24:24.443Z,6.09
2022-10-11T04:26:52.362Z,6.05
2022-10-11T04:29:21.718Z,6.19
2022-10-11T04:31:49.368Z,6.02
2022-10-11T04:34:17.450Z,6.29
2022-10-11T04:36:49.049Z,6.07
2022-10-11T04:39:17.748Z,6.17
2022-10-11T04:41:45.503Z,6.15
2022-10-11T04:44:13.051Z,6.35
2022-10-11T04:46:42.303Z,6.21
2022-10-11T04:49:10.113Z,6.12
2022-10-11T04:51:38.472Z,6.08
2022-10-11T04:54:06.351Z,6.32
2022-10-11T04:56:34.944Z,6.29
2022-10-11T04:59:03.352Z,6.42
2022-10-11T05:01:31.231Z,6.47
2022-10-11T05:04:00.424Z,6.38
2022-10-11T05:06:28.181Z,6.57
2022-10-11T05:08:55.868Z,6.73
2022-10-11T05:11:23.444Z,6.59
2022-10-11T05:13:51.504Z,6.48
2022-10-11T05:16:19.918Z,6.58
2022-10-11T05:18:47.464Z,6.40
2022-10-11T05:21:19.815Z,6.42
2022-10-11T05:23:48.906Z,6.34
2022-10-11T05:26:17.715Z,6.37
2022-10-11T05:28:45.998Z,6.43
2022-10-11T05:31:13.847Z,6.40
2022-10-11T05:33:42.055Z,6.35
2022-10-11T05:36:10.346Z,6.35
2022-10-11T05:38:39.603Z,6.32
2022-10-11T05:41:09.587Z,6.21
2022-10-11T05:43:37.500Z,6.15
2022-10-11T05:46:05.850Z,6.18
2022-10-11T05:48:34.567Z,6.07
2022-10-11T05:51:03.352Z,6.08
2022-10-11T05:53:31.705Z,5.96
2022-10-11T05:56:00.767Z,5.57
2022-10-11T05:58:29.013Z,5.56
2022-10-11T06:00:57.071Z,5.42
2022-10-11T06:03:24.903Z,5.16
2022-10-11T06:05:56.783Z,5.08
2022-10-11T06:08:25.841Z,4.96
2022-10-11T06:10:53.654Z,5.01
2022-10-11T06:13:22.793Z,4.99
2022-10-11T06:15:50.736Z,4.94
2022-10-11T06:18:18.505Z,5.15
2022-10-11T06:20:46.264Z,5.00
2022-10-11T06:23:14.060Z,4.96
2022-10-11T06:25:41.624Z,5.08
2022-10-11T06:28:09.573Z,5.12
2022-10-11T06:30:39.816Z,5.13
2022-10-11T06:33:08.357Z,5.04
2022-10-11T06:35:35.930Z,5.23
2022-10-11T06:38:03.943Z,5.22
2022-10-11T06:40:31.551Z,5.31
2022-10-11T06:42:59.639Z,5.55
2022-10-11T06:45:27.433Z,5.43
2022-10-11T06:47:56.789Z,5.43
2022-10-11T06:50:41.008Z,5.84
2022-10-11T06:53:12.447Z,6.44
2022-10-11T06:55:39.938Z,6.07
2022-10-11T06:58:07.452Z,6.54
2022-10-11T07:00:34.975Z,6.65
2022-10-11T07:03:04.732Z,6.64
2022-10-11T07:05:33.373Z,6.59
2022-10-11T07:08:01.615Z,6.49
2022-10-11T07:10:29.429Z,6.44
2022-10-11T07:12:56.896Z,6.45
2022-10-11T07:15:24.404Z,6.46
2022-10-11T07:17:51.971Z,6.52
2022-10-11T07:20:20.911Z,6.62
2022-10-11T07:22:48.446Z,6.67
2022-10-11T07:25:16.011Z,6.64
2022-10-11T07:27:43.678Z,6.67
2022-10-11T07:30:12.101Z,6.77
2022-10-11T07:32:39.627Z,6.73
2022-10-11T07:35:07.667Z,6.77
2022-10-11T07:37:36.786Z,6.82
2022-10-11T07:40:06.835Z,6.96
2022-10-11T07:42:34.620Z,7.00
2022-10-11T07:45:02.316Z,7.10
2022-10-11T07:47:29.848Z,7.22
2022-10-11T07:49:57.547Z,7.33
2022-10-11T07:52:25.667Z,7.46
2022-10-11T07:54:54.541Z,7.67
2022-10-11T07:57:22.096Z,7.78
2022-10-11T07:59:50.441Z,7.86
2022-10-11T08:02:18.036Z,7.92
2022-10-11T08:04:45.538Z,8.08
2022-10-11T08:07:13.089Z,8.20
2022-10-11T08:09:40.736Z,8.34
2022-10-11T08:12:10.034Z,8.58
2022-10-11T08:14:37.644Z,8.77
2022-10-11T08:17:05.214Z,8.85
2022-10-11T08:19:32.785Z,8.96
2022-10-11T08:22:00.461Z,9.10
2022-10-11T08:24:27.976Z,9.33
2022-10-11T08:26:56.043Z,9.48
2022-10-11T08:29:25.489Z,9.55
2022-10-11T08:31:52.983Z,9.73
2022-10-11T08:34:20.569Z,9.82
2022-10-11T08:36:48.531Z,9.92
2022-10-11T08:39:16.080Z,10.11
2022-10-11T08:41:47.023Z,10.24
2022-10-11T08:44:46.418Z,10.37
2022-10-11T08:47:22.577Z,10.66
2022-10-11T08:49:50.798Z,10.69
2022-10-11T08:52:22.991Z,10.81
2022-10-11T08:54:53.148Z,10.94
2022-10-11T08:57:22.700Z,11.09
2022-10-11T08:59:54.562Z,11.23
2022-10-11T09:02:49.331Z,11.32
2022-10-11T09:05:20.743Z,11.64
2022-10-11T09:07:54.036Z,11.59
2022-10-11T09:10:50.954Z,11.48
2022-10-11T09:13:43.559Z,11.78
2022-10-11T09:16:18.633Z,11.96
2022-10-11T09:18:55.807Z,11.86
2022-10-11T09:21:30.742Z,11.93
2022-10-11T09:24:22.850Z,12.05
2022-10-11T09:26:56.145Z,12.21
2022-10-11T09:29:36.054Z,12.37
2022-10-11T09:32:14.077Z,12.24
2022-10-11T09:34:41.795Z,12.35
2022-10-11T09:37:17.461Z,12.48
2022-10-11T09:39:50.803Z,12.25
2022-10-11T09:42:18.341Z,12.40
2022-10-11T09:44:48.294Z,12.46
2022-10-11T09:47:19.538Z,12.51
2022-10-11T09:49:50.372Z,12.51
2022-10-11T09:52:20.048Z,12.50
2022-10-11T09:54:49.368Z,12.62
2022-10-11T09:57:22.259Z,12.66
2022-10-11T10:00:01.503Z,12.68
2022-10-11T10:02:31.404Z,12.63
2022-10-11T10:05:01.962Z,12.77
2022-10-11T10:07:31.468Z,12.76
2022-10-11T10:09:59.525Z,12.82
2022-10-11T10:12:30.079Z,12.96
2022-10-11T10:15:08.129Z,13.08
2022-10-11T10:17:37.335Z,13.28
2022-10-11T10:20:06.261Z,13.30
2022-10-11T10:22:35.524Z,13.34
2022-10-11T10:25:07.887Z,13.40
2022-10-11T10:27:35.545Z,12.98
2022-10-11T10:30:14.398Z,13.17
2022-10-11T10:32:48.670Z,13.42
2022-10-11T10:35:27.381Z,13.63
2022-10-11T10:38:02.047Z,13.17
2022-10-11T10:40:34.021Z,13.68
2022-10-11T10:43:01.572Z,13.52
2022-10-11T10:45:34.509Z,13.56
2022-10-11T10:48:16.675Z,13.62
2022-10-11T10:50:50.653Z,13.79
2022-10-11T10:53:26.485Z,13.90
2022-10-11T10:56:00.551Z,13.38
2022-10-11T10:58:46.784Z,13.49
2022-10-11T11:01:16.366Z,13.67
2022-10-11T11:03:48.604Z,13.91
2022-10-11T11:06:23.241Z,13.49
2022-10-11T11:09:01.317Z,13.44
2022-10-11T11:11:48.750Z,13.21
2022-10-11T11:14:26.728Z,13.31
2022-10-11T11:16:58.366Z,13.37
2022-10-11T11:19:38.302Z,13.79
2022-10-11T11:22:11.781Z,14.19
2022-10-11T11:24:45.778Z,13.95
2022-10-11T11:27:19.588Z,13.67
2022-10-11T11:29:55.642Z,13.60
2022-10-11T11:32:29.433Z,13.46
2022-10-11T11:35:01.158Z,13.65
2022-10-11T11:37:32.292Z,13.91
2022-10-11T11:40:04.077Z,14.34
2022-10-11T11:42:36.129Z,14.46
2022-10-11T11:45:06.567Z,14.53
2022-10-11T11:47:36.803Z,14.40
2022-10-11T11:50:22.129Z,14.80
2022-10-11T11:52:53.648Z,14.66
2022-10-11T11:55:27.820Z,14.91
2022-10-11T11:58:06.772Z,15.00
2022-10-11T12:00:38.168Z,14.70
2022-10-11T12:03:10.884Z,15.09
2022-10-11T12:05:40.077Z,15.06
2022-10-11T12:08:09.056Z,15.15
2022-10-11T12:10:38.672Z,15.32
2022-10-11T12:13:21.500Z,14.95
2022-10-11T12:16:10.757Z,14.61
2022-10-11T12:18:49.530Z,14.38
2022-10-11T12:21:27.412Z,14.54
2022-10-11T12:23:56.127Z,14.80
2022-10-11T12:26:38.469Z,14.83
2022-10-11T12:29:42.163Z,15.01
2022-10-11T12:32:48.939Z,15.18
2022-10-11T12:35:43.448Z,15.56
2022-10-11T12:38:21.994Z,15.51
2022-10-11T12:40:51.163Z,15.18
2022-10-11T12:43:33.716Z,14.69
2022-10-11T12:46:34.909Z,14.53
2022-10-11T12:49:14.183Z,14.86
2022-10-11T12:51:46.770Z,15.28
2022-10-11T12:54:33.323Z,15.60
2022-10-11T12:57:26.383Z,16.19
2022-10-11T12:59:54.020Z,16.21
2022-10-11T13:02:28.851Z,15.75
2022-10-11T13:05:07.559Z,16.50
2022-10-11T13:07:36.038Z,16.09
2022-10-11T13:10:06.688Z,16.73
2022-10-11T13:12:40.389Z,16.37
2022-10-11T13:15:12.660Z,15.99
2022-10-11T13:17:42.894Z,16.16
2022-10-11T13:20:17.699Z,16.52
2022-10-11T13:22:47.213Z,15.80
2022-10-11T13:25:19.861Z,15.91
2022-10-11T13:27:48.202Z,18.42
2022-10-11T13:30:19.398Z,17.29
2022-10-11T13:32:47.337Z,18.56
2022-10-11T13:35:22.349Z,19.97
2022-10-11T13:37:52.480Z,20.52
2022-10-11T13:40:22.372Z,20.61
2022-10-11T13:42:51.544Z,18.56
2022-10-11T13:45:21.624Z,20.55
2022-10-11T13:47:50.055Z,20.97
2022-10-11T13:50:26.390Z,19.56
2022-10-11T13:52:57.054Z,18.96
2022-10-11T13:55:29.109Z,19.37
2022-10-11T13:57:58.673Z,17.96
2022-10-11T14:00:32.697Z,17.03
2022-10-11T14:03:03.914Z,16.51
2022-10-11T14:05:36.948Z,18.70
2022-10-11T14:08:07.583Z,21.70
2022-10-11T14:10:36.582Z,21.56
2022-10-11T14:13:07.814Z,21.86
2022-10-11T14:15:37.303Z,22.77
2022-10-11T14:18:27.868Z,23.11
2022-10-11T14:20:55.593Z,21.36
2022-10-11T14:23:23.142Z,21.55
2022-10-11T14:25:54.117Z,23.09
2022-10-11T14:28:21.692Z,21.86
2022-10-11T14:30:49.336Z,23.14
2022-10-11T14:33:16.971Z,21.92
2022-10-11T14:35:44.451Z,22.58
2022-10-11T14:38:12.807Z,23.91
2022-10-11T14:40:40.551Z,22.16
2022-10-11T14:43:09.448Z,22.23
2022-10-11T14:45:37.017Z,20.92
2022-10-11T14:48:05.156Z,20.76
2022-10-11T14:50:40.368Z,22.02
2022-10-11T14:53:08.988Z,22.31
2022-10-11T14:55:37.368Z,21.31
2022-10-11T14:58:04.959Z,21.84
2022-10-11T15:00:34.277Z,22.50
2022-10-11T15:03:02.093Z,21.65
2022-10-11T15:05:35.930Z,21.79
2022-10-11T15:08:03.616Z,20.50
2022-10-11T15:10:35.793Z,19.91
2022-10-11T15:13:04.669Z,21.16
2022-10-11T15:15:36.623Z,20.88
2022-10-11T15:18:06.001Z,21.56
2022-10-11T15:20:35.798Z,20.41
2022-10-11T15:23:05.939Z,20.11
2022-10-11T15:25:33.802Z,19.94
2022-10-11T15:28:01.639Z,17.62
2022-10-11T15:30:31.580Z,17.69
2022-10-11T15:33:00.652Z,18.76
2022-10-11T15:35:29.550Z,19.20
2022-10-11T15:37:59.343Z,17.90
2022-10-11T15:40:28.756Z,15.80
2022-10-11T15:42:56.726Z,15.51
2022-10-11T15:45:24.868Z,15.58
2022-10-11T15:47:52.747Z,15.10
2022-10-11T15:50:35.051Z,14.74
2022-10-11T15:53:03.807Z,14.20
2022-10-11T15:55:31.992Z,14.06
2022-10-11T15:58:01.068Z,13.44
2022-10-11T16:00:29.310Z,13.80
2022-10-11T16:02:57.885Z,13.23
2022-10-11T16:05:28.549Z,12.45
2022-10-11T16:07:56.232Z,12.48
2022-10-11T16:10:23.982Z,12.01
2022-10-11T16:12:51.529Z,12.12
2022-10-11T16:15:19.093Z,12.02
2022-10-11T16:17:47.069Z,12.07
2022-10-11T16:20:15.488Z,12.06
2022-10-11T16:22:44.425Z,11.82
2022-10-11T16:25:11.998Z,11.55
2022-10-11T16:27:39.544Z,11.20
2022-10-11T16:30:11.997Z,11.09
2022-10-11T16:32:40.039Z,11.03
2022-10-11T16:35:09.546Z,10.94
2022-10-11T16:37:37.267Z,10.80
2022-10-11T16:40:07.440Z,10.75
2022-10-11T16:42:35.172Z,10.68
2022-10-11T16:45:02.753Z,10.44
2022-10-11T16:47:30.744Z,10.31
2022-10-11T16:49:59.169Z,10.02
2022-10-11T16:52:26.774Z,9.92
2022-10-11T16:54:54.588Z,9.91
2022-10-11T16:57:23.473Z,9.77
2022-10-11T16:59:51.534Z,9.66
2022-10-11T17:02:20.423Z,9.71
2022-10-11T17:04:50.724Z,9.66
2022-10-11T17:07:18.770Z,9.29
2022-10-11T17:09:48.664Z,9.15
2022-10-11T17:12:17.698Z,9.01
2022-10-11T17:14:47.525Z,8.51
2022-10-11T17:17:15.693Z,8.73
2022-10-11T17:19:45.328Z,8.68
2022-10-11T17:22:14.967Z,8.69
2022-10-11T17:24:42.736Z,8.69
2022-10-11T17:27:10.346Z,8.67
2022-10-11T17:29:38.396Z,8.81
2022-10-11T17:32:07.642Z,8.41
2022-10-11T17:34:35.449Z,8.45
2022-10-11T17:37:06.860Z,8.50
2022-10-11T17:39:39.312Z,8.29
2022-10-11T17:42:07.525Z,8.22
2022-10-11T17:44:36.903Z,7.97
2022-10-11T17:47:05.195Z,7.81
2022-10-11T17:49:36.415Z,7.73
2022-10-11T17:52:04.250Z,7.75
2022-10-11T17:54:32.628Z,7.60
2022-10-11T17:57:00.433Z,7.35
2022-10-11T17:59:28.785Z,7.47
2022-10-11T18:01:56.593Z,7.49
2022-10-11T18:04:27.151Z,7.61
2022-10-11T18:06:56.086Z,7.63
2022-10-11T18:09:24.942Z,7.56
2022-10-11T18:11:52.756Z,7.37
2022-10-11T18:14:21.295Z,7.42
2022-10-11T18:16:48.969Z,7.22
2022-10-11T18:19:21.094Z,7.36
2022-10-11T18:21:48.636Z,7.60
2022-10-11T18:24:21.935Z,7.42
2022-10-11T18:26:49.668Z,7.33
2022-10-11T18:29:17.254Z,7.06
2022-10-11T18:31:45.093Z,7.16
2022-10-11T18:34:14.895Z,7.09
2022-10-11T18:36:46.954Z,6.90
2022-10-11T18:39:17.096Z,7.07
2022-10-11T18:41:45.249Z,7.24
2022-10-11T18:44:15.186Z,7.02
2022-10-11T18:46:43.105Z,7.08
2022-10-11T18:49:11.413Z,7.07
2022-10-11T18:51:40.191Z,6.99
2022-10-11T18:54:09.612Z,6.98
2022-10-11T18:56:39.525Z,7.12
2022-10-11T18:59:07.733Z,6.98
2022-10-11T19:01:38.272Z,6.76
2022-10-11T19:04:07.615Z,6.70
2022-10-11T19:06:37.849Z,7.01
2022-10-11T19:09:07.467Z,6.72
2022-10-11T19:11:39.014Z,6.65
2022-10-11T19:14:11.419Z,6.60
2022-10-11T19:16:41.430Z,6.67
2022-10-11T19:19:09.684Z,6.67
2022-10-11T19:21:37.655Z,6.52
2022-10-11T19:24:06.789Z,6.72
2022-10-11T19:26:36.039Z,6.68
2022-10-11T19:29:06.508Z,6.57
2022-10-11T19:31:37.012Z,6.70
2022-10-11T19:34:05.019Z,6.53
2022-10-11T19:36:36.458Z,6.37
2022-10-11T19:39:05.919Z,6.37
2022-10-11T19:41:33.471Z,6.18
2022-10-11T19:44:01.015Z,6.32
2022-10-11T19:46:50.512Z,6.45
2022-10-11T19:49:21.435Z,6.42
2022-10-11T19:51:49.492Z,6.29
2022-10-11T19:54:17.621Z,6.42
2022-10-11T19:56:45.498Z,6.17
2022-10-11T19:59:16.822Z,6.15
2022-10-11T20:01:49.402Z,6.25
2022-10-11T20:07:09.090Z,6.13
2022-10-11T20:09:38.110Z,6.10
2022-10-11T20:12:06.031Z,5.96
2022-10-11T20:14:33.952Z,5.98
2022-10-11T20:17:02.178Z,5.85
2022-10-11T20:19:31.846Z,5.90
2022-10-11T20:22:00.249Z,6.05
2022-10-11T20:24:32.948Z,5.88
2022-10-11T20:27:01.878Z,5.76
2022-10-11T20:29:29.560Z,5.86
2022-10-11T20:31:58.773Z,5.85
2022-10-11T20:34:31.175Z,6.09
2022-10-11T20:37:00.359Z,5.99
2022-10-11T20:39:27.931Z,5.95
2022-10-11T20:41:55.650Z,5.93
2022-10-11T20:44:23.812Z,5.70
2022-10-11T20:46:51.358Z,5.61
2022-10-11T20:49:20.777Z,5.49
2022-10-11T20:51:48.376Z,5.42
2022-10-11T20:54:17.737Z,5.51
2022-10-11T20:56:45.273Z,5.51
2022-10-11T20:59:12.829Z,5.41
2022-10-11T21:01:41.922Z,5.27
2022-10-11T21:04:17.719Z,5.17
2022-10-11T21:06:46.610Z,5.31
2022-10-11T21:09:16.585Z,5.26
2022-10-11T21:11:46.693Z,5.29
2022-10-11T21:14:14.472Z,5.65
2022-10-11T21:16:42.072Z,5.35
2022-10-11T21:19:14.386Z,5.18
2022-10-11T21:21:41.963Z,5.22
2022-10-11T21:24:09.506Z,5.27
2022-10-11T21:26:37.434Z,5.21
2022-10-11T21:29:06.501Z,5.05
2022-10-11T21:31:34.700Z,5.22
2022-10-11T21:34:02.773Z,5.24
2022-10-11T21:36:30.540Z,5.09
2022-10-11T21:38:58.488Z,5.32
2022-10-11T21:41:29.174Z,5.27
2022-10-11T21:43:57.091Z,5.12
2022-10-11T21:46:47.561Z,4.98
2022-10-11T21:49:15.327Z,4.89
2022-10-11T21:51:43.065Z,4.90
2022-10-11T21:54:10.849Z,5.00
2022-10-11T21:56:38.536Z,4.89
2022-10-11T21:59:09.419Z,4.86
2022-10-11T22:01:42.140Z,4.80
2022-10-11T22:04:09.945Z,4.81
2022-10-11T22:06:38.225Z,4.91
2022-10-11T22:09:06.897Z,5.01
2022-10-11T22:11:34.429Z,4.74
2022-10-11T22:14:02.539Z,4.70
2022-10-11T22:16:30.067Z,4.77
2022-10-11T22:18:59.933Z,4.78
2022-10-11T22:21:28.038Z,4.88
2022-10-11T22:23:55.865Z,4.66
2022-10-11T22:26:25.122Z,4.72
2022-10-11T22:28:53.496Z,4.60
2022-10-11T22:31:22.494Z,4.45
2022-10-11T22:33:50.104Z,4.47
2022-10-11T22:36:19.330Z,4.54
2022-10-11T22:38:47.316Z,4.55
2022-10-11T22:41:14.888Z,4.37
2022-10-11T22:43:42.479Z,4.36
2022-10-11T22:46:10.053Z,4.40
2022-10-11T22:48:37.948Z,4.46
2022-10-11T22:51:05.700Z,4.43
2022-10-11T22:53:34.667Z,4.43
2022-10-11T22:56:02.284Z,4.26
2022-10-11T22:58:29.973Z,4.21
2022-10-11T23:00:57.475Z,4.23
2022-10-11T23:03:25.183Z,4.33
2022-10-11T23:05:56.489Z,4.34
2022-10-11T23:08:24.588Z,4.26
2022-10-11T23:10:53.873Z,3.96
2022-10-11T23:13:21.679Z,4.22
2022-10-11T23:15:49.622Z,4.34
2022-10-11T23:18:17.668Z,4.29
2022-10-11T23:20:45.723Z,4.14
2022-10-11T23:23:13.488Z,4.23
2022-10-11T23:25:41.048Z,4.08
2022-10-11T23:28:10.569Z,4.12
2022-10-11T23:30:40.423Z,4.16
2022-10-11T23:33:08.010Z,4.43
2022-10-11T23:35:36.376Z,4.20
2022-10-11T23:38:03.932Z,4.00
2022-10-11T23:40:31.643Z,4.10
2022-10-11T23:42:59.367Z,3.83
2022-10-11T23:45:28.824Z,3.69
2022-10-11T23:47:56.335Z,3.84
2022-10-11T23:50:23.823Z,3.52
2022-10-11T23:52:51.500Z,3.46
2022-10-11T23:55:19.261Z,3.39
2022-10-11T23:57:47.492Z,3.67
